Time;durP1;ratioP1;P1;durP2;ratioP2;P2;SDS_P1;SDS_P2;PMS_P1;PMS_P2;Temp;Humidity;BMP_temperature;BMP_pressure;BME280_temperature;BME280_humidity;BME280_pressure;Samples;Min_cycle;Max_cycle;Signal;HPM_P1;HPM_P2
2023/11/10 00:02:09;;;;;;;4.60;4.23;;;9.50;99.90;;;;;;4866205;29;20562;-82
2023/11/10 00:04:36;;;;;;;5.37;4.97;;;9.40;99.90;;;;;;4856136;29;20205;-81
2023/11/10 00:07:04;;;;;;;5.53;5.13;;;9.50;99.90;;;;;;4854604;29;20232;-81
2023/11/10 00:09:32;;;;;;;5.10;4.70;;;9.50;99.90;;;;;;4871591;29;20206;-81
2023/11/10 00:12:02;;;;;;;10.40;9.80;;;9.50;99.90;;;;;;4875501;29;20206;-81
2023/11/10 00:14:29;;;;;;;10.93;10.33;;;9.50;99.90;;;;;;4864868;29;20340;-81
2023/11/10 00:16:56;;;;;;;10.20;9.60;;;9.40;99.90;;;;;;4875736;29;20273;-81
2023/11/10 00:19:24;;;;;;;10.23;9.73;;;9.40;99.90;;;;;;4854968;29;20201;-82
2023/11/10 00:21:51;;;;;;;5.47;5.17;;;9.40;99.90;;;;;;4868635;29;20206;-81
2023/11/10 00:24:18;;;;;;;8.17;7.67;;;9.40;99.90;;;;;;4858365;29;20217;-82
2023/11/10 00:26:45;;;;;;;10.60;10.00;;;9.20;99.90;;;;;;4858089;29;20241;-81
2023/11/10 00:29:13;;;;;;;10.60;10.00;;;9.20;99.90;;;;;;4851554;29;20216;-81
2023/11/10 00:31:40;;;;;;;10.30;9.70;;;9.10;99.90;;;;;;4856884;29;20209;-80
2023/11/10 00:34:07;;;;;;;10.10;9.60;;;9.00;99.90;;;;;;4860240;29;20227;-81
2023/11/10 00:36:34;;;;;;;4.10;3.80;;;8.90;99.90;;;;;;4871214;29;20244;-81
2023/11/10 00:39:01;;;;;;;8.57;8.07;;;8.80;99.90;;;;;;4852242;29;20206;-81
2023/11/10 00:41:27;;;;;;;11.20;10.50;;;8.70;99.90;;;;;;4871746;29;20198;-80
2023/11/10 00:43:54;;;;;;;10.83;10.23;;;8.60;99.90;;;;;;4853672;29;20194;-81
2023/11/10 00:46:22;;;;;;;11.63;11.03;;;8.60;99.90;;;;;;4862479;29;20221;-81
2023/11/10 00:48:49;;;;;;;10.80;10.20;;;8.50;99.90;;;;;;4859101;29;20205;-81
2023/11/10 00:51:16;;;;;;;10.83;10.23;;;8.50;99.90;;;;;;4854678;29;20213;-81
2023/11/10 00:53:43;;;;;;;10.60;10.00;;;8.40;99.90;;;;;;4876224;29;20248;-81
2023/11/10 00:56:10;;;;;;;11.47;10.87;;;8.40;99.90;;;;;;4852084;29;20229;-81
2023/11/10 00:58:37;;;;;;;11.70;11.10;;;8.40;99.90;;;;;;4853565;29;20218;-81
2023/11/10 01:01:04;;;;;;;11.00;10.40;;;8.40;99.90;;;;;;4875715;29;20218;-81
2023/11/10 01:03:32;;;;;;;7.10;6.70;;;8.40;99.90;;;;;;4881147;29;20599;-81
2023/11/10 01:05:59;;;;;;;3.40;3.20;;;8.40;99.90;;;;;;4865673;29;20209;-82
2023/11/10 01:08:26;;;;;;;4.97;4.57;;;8.40;99.90;;;;;;4861954;29;20289;-81
2023/11/10 01:10:53;;;;;;;4.70;4.40;;;8.40;99.90;;;;;;4862050;29;20253;-81
2023/11/10 01:13:20;;;;;;;5.00;4.67;;;8.40;99.90;;;;;;4862173;29;20268;-82
2023/11/10 01:15:47;;;;;;;6.80;6.40;;;8.40;99.90;;;;;;4876928;29;20261;-81
2023/11/10 01:18:14;;;;;;;5.77;5.47;;;8.40;99.90;;;;;;4865333;29;20266;-82
2023/11/10 01:20:42;;;;;;;5.20;4.80;;;8.40;99.90;;;;;;4872619;29;20206;-82
2023/11/10 01:23:09;;;;;;;4.67;4.27;;;8.50;99.90;;;;;;4867767;29;20244;-81
2023/11/10 01:25:35;;;;;;;4.93;4.63;;;8.50;99.90;;;;;;4856257;29;20211;-82
2023/11/10 01:28:03;;;;;;;6.80;6.20;;;8.40;99.90;;;;;;4874218;29;20261;-81
2023/11/10 01:30:29;;;;;;;3.33;3.13;;;8.50;99.90;;;;;;4879738;29;20201;-81
2023/11/10 01:32:57;;;;;;;3.70;3.50;;;8.40;99.90;;;;;;4879829;29;20235;-82
2023/11/10 01:35:24;;;;;;;3.73;3.43;;;8.40;99.90;;;;;;4861957;29;20236;-80
2023/11/10 01:37:52;;;;;;;3.93;3.70;;;8.40;99.90;;;;;;4871171;29;20229;-82
2023/11/10 01:40:20;;;;;;;4.87;4.40;;;8.40;99.90;;;;;;4869771;29;20208;-81
2023/11/10 01:42:47;;;;;;;8.90;8.40;;;8.40;99.90;;;;;;4863821;29;20277;-81
2023/11/10 01:45:15;;;;;;;6.63;6.23;;;8.40;99.90;;;;;;4862029;29;20653;-82
2023/11/10 01:47:45;;;;;;;6.80;6.40;;;8.40;99.90;;;;;;4860794;29;20289;-81
2023/11/10 01:50:12;;;;;;;7.00;6.60;;;8.40;99.90;;;;;;4882665;29;20206;-81
2023/11/10 01:52:41;;;;;;;10.83;10.23;;;8.40;99.90;;;;;;4857294;29;20213;-81
2023/11/10 01:55:14;;;;;;;11.20;10.60;;;8.40;99.90;;;;;;4847154;29;20296;-81
2023/11/10 01:57:41;;;;;;;11.33;10.63;;;8.40;99.90;;;;;;4863145;29;20277;-81
2023/11/10 02:00:08;;;;;;;8.73;8.13;;;8.40;99.90;;;;;;4858357;29;20206;-81
2023/11/10 02:02:37;;;;;;;9.80;9.30;;;8.40;99.90;;;;;;4881105;29;20209;-81
2023/11/10 02:05:06;;;;;;;7.00;6.50;;;8.40;99.90;;;;;;4875518;29;20212;-81
2023/11/10 02:07:33;;;;;;;6.20;5.80;;;8.40;99.90;;;;;;4853817;29;20229;-82
2023/11/10 02:10:01;;;;;;;4.30;4.00;;;8.30;99.90;;;;;;4876762;29;20223;-81
2023/11/10 02:12:29;;;;;;;7.10;6.60;;;8.40;99.90;;;;;;4858339;29;20248;-81
2023/11/10 02:14:56;;;;;;;6.80;6.27;;;8.30;99.90;;;;;;4863762;29;20747;-80
2023/11/10 02:17:23;;;;;;;6.60;6.20;;;8.40;99.90;;;;;;4857337;29;20703;-82
2023/11/10 02:19:50;;;;;;;6.70;6.30;;;8.40;99.90;;;;;;4860086;29;20193;-81
2023/11/10 02:22:17;;;;;;;6.93;6.50;;;8.40;99.90;;;;;;4855581;29;20303;-81
2023/11/10 02:24:46;;;;;;;7.23;6.83;;;8.40;99.90;;;;;;4850205;29;20198;-80
2023/11/10 02:27:14;;;;;;;7.53;7.10;;;8.40;99.90;;;;;;4856995;29;20234;-81
2023/11/10 02:29:41;;;;;;;7.20;6.80;;;8.40;99.90;;;;;;4859645;29;20198;-80
2023/11/10 02:32:10;;;;;;;7.80;7.30;;;8.30;99.90;;;;;;4856484;29;20224;-81
2023/11/10 02:34:37;;;;;;;7.70;7.20;;;8.30;99.90;;;;;;4860853;29;20319;-81
2023/11/10 02:37:07;;;;;;;8.13;7.63;;;8.30;99.90;;;;;;4861845;29;20286;-81
2023/11/10 02:39:34;;;;;;;8.73;8.23;;;8.30;99.90;;;;;;4854637;29;20201;-81
2023/11/10 02:42:03;;;;;;;9.13;8.63;;;8.30;99.90;;;;;;4852621;29;20225;-81
2023/11/10 02:44:32;;;;;;;9.73;9.20;;;8.30;99.90;;;;;;4850900;29;20224;-80
2023/11/10 02:46:59;;;;;;;9.50;9.00;;;8.30;99.90;;;;;;4858129;29;20220;-80
2023/11/10 02:49:26;;;;;;;10.20;9.50;;;8.30;99.90;;;;;;4855398;29;20513;-82
2023/11/10 02:51:52;;;;;;;10.40;9.80;;;8.30;99.90;;;;;;4855782;29;20213;-79
2023/11/10 02:54:19;;;;;;;11.80;11.20;;;8.20;99.90;;;;;;4861202;29;20217;-81
2023/11/10 02:56:46;;;;;;;4.70;4.40;;;8.20;99.90;;;;;;4872998;29;20235;-81
2023/11/10 02:59:14;;;;;;;5.17;4.90;;;8.20;99.90;;;;;;4867327;29;20687;-81
2023/11/10 03:01:42;;;;;;;7.70;7.20;;;8.20;99.90;;;;;;4857691;29;20205;-80
2023/11/10 03:04:09;;;;;;;7.50;7.10;;;8.20;99.90;;;;;;4873733;29;20212;-81
2023/11/10 03:06:36;;;;;;;6.60;6.23;;;8.20;99.90;;;;;;4855908;29;20213;-80
2023/11/10 03:09:03;;;;;;;3.80;3.60;;;8.20;99.90;;;;;;4858265;29;20590;-81
2023/11/10 03:11:31;;;;;;;5.63;5.33;;;8.20;99.90;;;;;;4859207;29;20669;-81
2023/11/10 03:13:58;;;;;;;9.90;9.40;;;8.10;99.90;;;;;;4858387;29;20233;-80
2023/11/10 03:16:25;;;;;;;4.40;4.20;;;8.10;99.90;;;;;;4849929;29;20217;-80
2023/11/10 03:18:53;;;;;;;5.50;5.20;;;8.00;99.90;;;;;;4857819;29;20205;-80
2023/11/10 03:21:22;;;;;;;6.17;5.87;;;8.00;99.90;;;;;;4857219;29;20197;-81
2023/11/10 03:23:49;;;;;;;11.03;10.43;;;8.00;99.90;;;;;;4854189;29;20197;-81
2023/11/10 03:26:16;;;;;;;8.80;8.20;;;8.00;99.90;;;;;;4852942;29;20302;-81
2023/11/10 03:28:44;;;;;;;10.87;10.30;;;8.00;99.90;;;;;;4862284;29;20197;-81
2023/11/10 03:31:10;;;;;;;10.40;9.90;;;7.90;99.90;;;;;;4873737;29;20232;-81
2023/11/10 03:33:37;;;;;;;10.73;10.03;;;7.90;99.90;;;;;;4859216;29;20729;-80
2023/11/10 03:36:06;;;;;;;9.70;9.20;;;8.00;99.90;;;;;;4881734;29;20406;-81
2023/11/10 03:38:33;;;;;;;3.97;3.67;;;8.00;99.90;;;;;;4858134;29;20209;-80
2023/11/10 03:41:00;;;;;;;2.30;2.20;;;7.90;99.90;;;;;;4855018;29;20272;-81
2023/11/10 03:43:28;;;;;;;2.50;2.40;;;7.90;99.90;;;;;;4861367;29;20297;-80
2023/11/10 03:45:55;;;;;;;2.60;2.50;;;8.00;99.90;;;;;;4873796;29;20212;-81
2023/11/10 03:48:22;;;;;;;2.53;2.43;;;8.00;99.90;;;;;;4851842;29;20221;-81
2023/11/10 03:50:51;;;;;;;2.67;2.50;;;8.00;99.90;;;;;;4867198;29;20201;-83
2023/11/10 03:53:20;;;;;;;2.40;2.30;;;8.00;99.90;;;;;;4856619;29;20275;-86
2023/11/10 03:55:47;;;;;;;2.50;2.40;;;8.00;99.90;;;;;;4849973;29;20679;-86
2023/11/10 03:58:14;;;;;;;2.47;2.37;;;8.00;99.90;;;;;;4844651;29;20197;-86
2023/11/10 04:00:41;;;;;;;2.63;2.53;;;8.00;99.90;;;;;;4840731;29;20657;-86
2023/11/10 04:03:09;;;;;;;2.43;2.33;;;8.00;99.90;;;;;;4837211;29;20210;-86
2023/11/10 04:05:36;;;;;;;2.50;2.40;;;8.00;99.90;;;;;;4840840;29;20281;-85
2023/11/10 04:08:03;;;;;;;2.50;2.40;;;8.00;99.90;;;;;;4846400;29;20731;-86
2023/11/10 04:10:32;;;;;;;2.53;2.43;;;8.00;99.90;;;;;;4832666;29;20209;-86
2023/11/10 04:12:59;;;;;;;2.70;2.60;;;8.00;99.90;;;;;;4839926;29;20227;-86
2023/11/10 04:15:26;;;;;;;2.70;2.60;;;8.00;99.90;;;;;;4845283;29;20257;-82
2023/11/10 04:18:06;;;;;;;2.93;2.83;;;8.00;99.90;;;;;;4869899;29;20217;-82
2023/11/10 04:20:35;;;;;;;2.80;2.70;;;8.00;99.90;;;;;;4867180;29;20280;-85
2023/11/10 04:23:02;;;;;;;3.20;3.10;;;7.90;99.90;;;;;;4848883;29;20214;-84
2023/11/10 04:25:34;;;;;;;3.70;3.50;;;7.90;99.90;;;;;;4856516;29;20209;-85
2023/11/10 04:28:00;;;;;;;4.50;4.30;;;7.90;99.90;;;;;;4857348;29;20278;-83
2023/11/10 04:30:30;;;;;;;4.33;4.13;;;7.90;99.90;;;;;;4868709;29;20352;-84
2023/11/10 04:32:57;;;;;;;4.30;4.10;;;7.90;99.90;;;;;;4864840;29;20216;-85
2023/11/10 04:35:24;;;;;;;4.63;4.43;;;7.90;99.90;;;;;;4871154;29;20756;-84
2023/11/10 04:37:51;;;;;;;4.30;4.10;;;7.90;99.90;;;;;;4858011;29;20256;-85
2023/11/10 04:40:18;;;;;;;4.53;4.33;;;7.90;99.90;;;;;;4874342;29;20256;-85
2023/11/10 04:42:47;;;;;;;8.87;8.37;;;7.90;99.90;;;;;;4876374;29;20290;-85
2023/11/10 04:45:14;;;;;;;8.37;7.97;;;7.90;99.90;;;;;;4851949;29;20293;-86
2023/11/10 04:47:40;;;;;;;9.90;9.40;;;7.90;99.90;;;;;;4856332;29;20253;-84
2023/11/10 04:50:08;;;;;;;5.73;5.43;;;7.90;99.90;;;;;;4863049;29;20217;-84
2023/11/10 04:52:35;;;;;;;5.07;4.80;;;7.90;99.90;;;;;;4862529;29;20234;-85
2023/11/10 04:55:03;;;;;;;6.37;5.97;;;7.90;99.90;;;;;;4877402;29;20221;-86
2023/11/10 04:57:30;;;;;;;4.90;4.70;;;7.90;99.90;;;;;;4858211;29;20317;-83
2023/11/10 05:00:00;;;;;;;4.30;4.10;;;7.90;99.90;;;;;;4853320;29;20210;-83
2023/11/10 05:02:28;;;;;;;2.70;2.50;;;7.90;99.90;;;;;;4881798;29;20209;-85
2023/11/10 05:04:55;;;;;;;2.43;2.33;;;7.90;99.90;;;;;;4859965;29;20236;-85
2023/11/10 05:07:22;;;;;;;2.60;2.50;;;7.90;99.90;;;;;;4885223;29;20236;-85
2023/11/10 05:09:49;;;;;;;2.73;2.63;;;7.90;99.90;;;;;;4855392;29;20254;-85
2023/11/10 05:12:16;;;;;;;3.57;3.47;;;7.90;99.90;;;;;;4873502;29;20265;-84
2023/11/10 05:14:43;;;;;;;4.20;4.00;;;7.90;99.90;;;;;;4878215;29;20304;-84
2023/11/10 05:17:12;;;;;;;2.70;2.60;;;7.90;99.90;;;;;;4859447;29;20292;-85
2023/11/10 05:19:39;;;;;;;2.87;2.77;;;7.90;99.90;;;;;;4876973;29;20635;-84
2023/11/10 05:22:06;;;;;;;3.30;3.20;;;7.90;99.90;;;;;;4878827;29;20687;-84
2023/11/10 05:24:33;;;;;;;3.10;3.00;;;7.80;99.90;;;;;;4873663;29;20208;-84
2023/11/10 05:27:00;;;;;;;3.60;3.40;;;7.90;99.90;;;;;;4850349;29;20275;-83
2023/11/10 05:29:27;;;;;;;3.57;3.37;;;7.90;99.90;;;;;;4857221;29;20313;-84
2023/11/10 05:31:57;;;;;;;4.27;3.70;;;7.90;99.90;;;;;;4860990;29;20236;-83
2023/11/10 05:34:25;;;;;;;3.90;3.60;;;7.90;99.90;;;;;;4858793;29;20231;-84
2023/11/10 05:36:52;;;;;;;4.03;3.73;;;7.90;99.90;;;;;;4850721;29;20663;-84
2023/11/10 05:39:19;;;;;;;4.10;3.80;;;7.90;99.90;;;;;;4853834;29;20291;-84
2023/11/10 05:41:46;;;;;;;3.60;3.40;;;7.80;99.90;;;;;;4857866;29;20277;-84
2023/11/10 05:44:13;;;;;;;3.30;3.10;;;7.90;99.90;;;;;;4862844;29;20213;-83
2023/11/10 05:46:40;;;;;;;3.00;2.90;;;7.80;99.90;;;;;;4879275;29;20312;-86
2023/11/10 05:49:07;;;;;;;3.10;3.00;;;7.80;99.90;;;;;;4844335;29;20713;-85
2023/11/10 05:51:35;;;;;;;3.00;2.90;;;7.80;99.90;;;;;;4858535;29;20205;-86
2023/11/10 05:54:03;;;;;;;4.13;3.93;;;7.80;99.90;;;;;;4866085;29;20256;-85
2023/11/10 05:56:29;;;;;;;5.93;5.63;;;7.80;99.90;;;;;;4857019;29;20225;-84
2023/11/10 05:58:58;;;;;;;4.60;4.40;;;7.80;99.90;;;;;;4857465;29;20205;-85
2023/11/10 06:01:25;;;;;;;11.13;10.53;;;7.80;99.90;;;;;;4858037;29;20210;-84
2023/11/10 06:03:52;;;;;;;11.37;10.77;;;7.70;99.90;;;;;;4870914;29;20678;-83
2023/11/10 06:06:20;;;;;;;11.03;10.43;;;7.70;99.90;;;;;;4848255;29;20231;-84
2023/11/10 06:08:48;;;;;;;11.00;10.40;;;7.70;99.90;;;;;;4863548;29;20209;-85
2023/11/10 06:11:20;;;;;;;11.33;10.73;;;7.70;99.90;;;;;;4859604;29;20210;-85
2023/11/10 06:13:48;;;;;;;11.50;10.90;;;7.70;99.90;;;;;;4852445;29;20211;-85
2023/11/10 06:16:15;;;;;;;11.07;10.47;;;7.70;99.90;;;;;;4844846;29;20275;-84
2023/11/10 06:18:44;;;;;;;10.77;10.20;;;7.70;99.90;;;;;;4882457;29;20296;-84
2023/11/10 06:21:12;;;;;;;10.97;10.37;;;7.80;99.90;;;;;;4859432;29;20261;-85
2023/11/10 06:23:39;;;;;;;11.27;10.67;;;7.80;99.90;;;;;;4853201;29;20221;-84
2023/11/10 06:26:08;;;;;;;11.60;11.00;;;7.80;99.90;;;;;;4876428;29;20201;-85
2023/11/10 06:28:36;;;;;;;11.10;10.50;;;7.90;99.90;;;;;;4858054;29;20667;-84
2023/11/10 06:31:04;;;;;;;11.30;10.70;;;7.90;99.90;;;;;;4852476;29;20214;-85
2023/11/10 06:33:31;;;;;;;11.70;11.10;;;7.90;99.90;;;;;;4856175;29;20213;-81
2023/11/10 06:35:58;;;;;;;11.00;10.40;;;7.90;99.90;;;;;;4858871;29;20655;-82
2023/11/10 06:38:25;;;;;;;11.20;10.60;;;7.90;99.90;;;;;;4857980;29;20198;-82
2023/11/10 06:40:53;;;;;;;10.80;10.20;;;7.90;99.90;;;;;;4863263;29;20253;-82
2023/11/10 06:43:21;;;;;;;10.70;10.10;;;7.90;99.90;;;;;;4875974;29;20222;-82
2023/11/10 06:45:48;;;;;;;11.40;10.80;;;7.90;99.90;;;;;;4854549;29;20581;-81
2023/11/10 06:48:15;;;;;;;11.03;10.43;;;8.00;99.90;;;;;;4869565;29;20205;-82
2023/11/10 06:50:42;;;;;;;11.00;10.30;;;8.00;99.90;;;;;;4850951;29;20262;-82
2023/11/10 06:53:10;;;;;;;11.20;10.60;;;8.00;99.90;;;;;;4858616;29;20646;-83
2023/11/10 06:55:37;;;;;;;10.93;10.33;;;8.00;99.90;;;;;;4872397;29;20214;-82
2023/11/10 06:58:05;;;;;;;10.90;10.30;;;8.10;99.90;;;;;;4873626;29;20234;-81
2023/11/10 07:00:33;;;;;;;11.13;10.53;;;8.10;99.90;;;;;;4860700;29;20675;-81
2023/11/10 07:03:00;;;;;;;11.17;10.57;;;8.20;99.90;;;;;;4869940;29;20201;-82
2023/11/10 07:05:27;;;;;;;10.53;9.87;;;8.20;99.90;;;;;;4858206;29;20298;-82
2023/11/10 07:07:54;;;;;;;11.20;10.50;;;8.30;99.90;;;;;;4866176;29;20243;-82
2023/11/10 07:10:21;;;;;;;10.90;10.20;;;8.30;99.90;;;;;;4873092;29;20208;-82
2023/11/10 07:12:48;;;;;;;11.10;10.40;;;8.30;99.90;;;;;;4841566;29;20276;-82
2023/11/10 07:15:15;;;;;;;10.40;9.80;;;8.30;99.90;;;;;;4870955;29;20269;-81
2023/11/10 07:17:43;;;;;;;10.20;9.60;;;8.30;99.90;;;;;;4860636;29;20233;-81
2023/11/10 07:20:11;;;;;;;9.70;9.20;;;8.30;99.90;;;;;;4854362;29;20631;-82
2023/11/10 07:22:38;;;;;;;9.63;9.13;;;8.30;99.90;;;;;;4849776;29;20244;-81
2023/11/10 07:25:07;;;;;;;9.97;9.37;;;8.30;99.90;;;;;;4858552;29;20287;-81
2023/11/10 07:27:34;;;;;;;4.87;4.57;;;8.30;99.90;;;;;;4871228;29;20277;-81
2023/11/10 07:30:01;;;;;;;2.30;2.20;;;8.30;99.90;;;;;;4852865;29;20209;-81
2023/11/10 07:32:29;;;;;;;2.40;2.30;;;8.40;99.90;;;;;;4867196;29;20716;-81
2023/11/10 07:34:57;;;;;;;6.90;6.50;;;8.40;99.90;;;;;;4857684;29;20502;-82
2023/11/10 07:37:25;;;;;;;5.27;4.97;;;8.40;99.90;;;;;;4874421;29;20233;-80
2023/11/10 07:39:52;;;;;;;4.50;4.30;;;8.40;99.90;;;;;;4848816;29;20291;-81
2023/11/10 07:42:20;;;;;;;2.70;2.60;;;8.50;99.90;;;;;;4872140;29;20206;-81
2023/11/10 07:44:47;;;;;;;2.50;2.40;;;8.60;99.90;;;;;;4870634;29;20681;-82
2023/11/10 07:47:14;;;;;;;3.23;3.00;;;8.70;99.90;;;;;;4858911;29;20225;-85
2023/11/10 07:49:41;;;;;;;3.80;3.60;;;8.90;99.90;;;;;;4860857;29;20209;-86
2023/11/10 07:52:10;;;;;;;3.20;3.03;;;9.00;99.90;;;;;;4851812;29;20217;-86
2023/11/10 07:54:38;;;;;;;3.80;3.60;;;9.00;99.90;;;;;;4857169;29;20278;-85
2023/11/10 07:57:06;;;;;;;3.07;2.97;;;9.00;99.90;;;;;;4859718;29;20232;-83
2023/11/10 07:59:33;;;;;;;2.20;2.10;;;9.00;99.90;;;;;;4851851;29;20213;-83
2023/11/10 08:02:02;;;;;;;9.90;9.40;;;9.00;99.90;;;;;;4867242;29;20266;-83
2023/11/10 08:04:29;;;;;;;3.20;3.00;;;9.00;99.90;;;;;;4879410;29;20209;-84
2023/11/10 08:06:56;;;;;;;9.80;9.27;;;9.00;99.90;;;;;;4849395;29;20228;-84
2023/11/10 08:09:29;;;;;;;9.43;8.93;;;9.00;99.90;;;;;;4862834;29;20260;-84
2023/11/10 08:11:56;;;;;;;10.10;9.50;;;8.90;99.90;;;;;;4843894;29;20205;-80
2023/11/10 08:14:23;;;;;;;9.33;8.83;;;8.90;99.90;;;;;;4866815;29;20205;-79
2023/11/10 08:16:50;;;;;;;9.30;8.80;;;8.90;99.90;;;;;;4856068;29;20232;-80
2023/11/10 08:19:17;;;;;;;9.93;9.40;;;8.90;99.90;;;;;;4857350;29;20209;-80
2023/11/10 08:21:44;;;;;;;8.63;8.23;;;8.90;99.90;;;;;;4878282;29;20201;-81
2023/11/10 08:24:11;;;;;;;8.73;8.23;;;8.90;99.90;;;;;;4861484;29;20279;-80
2023/11/10 08:26:39;;;;;;;9.47;8.97;;;8.90;99.90;;;;;;4837124;29;20728;-80
2023/11/10 08:29:07;;;;;;;9.60;9.10;;;8.90;99.90;;;;;;4873845;29;20201;-80
2023/11/10 08:31:33;;;;;;;9.30;8.80;;;9.00;99.90;;;;;;4854337;29;20203;-81
2023/11/10 08:34:00;;;;;;;12.80;12.10;;;9.10;99.90;;;;;;4860855;29;20675;-80
2023/11/10 08:36:28;;;;;;;9.40;8.90;;;9.20;99.90;;;;;;4856731;29;20233;-79
2023/11/10 08:38:55;;;;;;;11.93;11.23;;;9.30;99.90;;;;;;4866789;29;20484;-80
2023/11/10 08:41:22;;;;;;;9.60;9.10;;;9.50;99.90;;;;;;4874728;29;20253;-80
2023/11/10 08:43:50;;;;;;;12.47;11.77;;;9.50;99.90;;;;;;4856443;29;20756;-80
2023/11/10 08:46:18;;;;;;;9.40;8.90;;;9.60;99.90;;;;;;4870138;29;20303;-81
2023/11/10 08:48:45;;;;;;;10.30;9.63;;;9.70;99.90;;;;;;4852429;29;20208;-81
2023/11/10 08:51:12;;;;;;;9.43;8.93;;;9.80;99.90;;;;;;4855997;29;20210;-81
2023/11/10 08:53:39;;;;;;;9.83;9.33;;;10.10;99.90;;;;;;4873437;29;20209;-81
2023/11/10 08:56:06;;;;;;;9.20;8.70;;;10.50;99.90;;;;;;4849668;29;20706;-80
2023/11/10 08:58:33;;;;;;;9.63;9.13;;;11.00;99.90;;;;;;4856826;29;20210;-80
2023/11/10 09:01:01;;;;;;;9.07;8.57;;;11.60;99.90;;;;;;4852748;29;20219;-80
2023/11/10 09:03:28;;;;;;;9.60;9.10;;;11.90;99.90;;;;;;4851438;29;20225;-81
2023/11/10 09:05:55;;;;;;;8.47;8.07;;;12.10;99.90;;;;;;4849468;29;20200;-81
2023/11/10 09:08:21;;;;;;;5.13;4.93;;;12.10;99.90;;;;;;4854642;29;20212;-80
2023/11/10 09:10:48;;;;;;;5.63;5.33;;;11.90;99.90;;;;;;4847209;29;20222;-80
2023/11/10 09:13:15;;;;;;;8.03;7.63;;;11.60;99.90;;;;;;4871766;29;20210;-80
2023/11/10 09:19:21;;;;;;;8.70;8.30;;;11.50;99.90;;;;;;4872986;29;20252;-80
2023/11/10 09:21:49;;;;;;;8.83;8.33;;;11.60;99.90;;;;;;4872187;29;20203;-80
2023/11/10 09:24:16;;;;;;;8.03;7.63;;;11.50;99.90;;;;;;4877766;29;20237;-81
2023/11/10 09:26:44;;;;;;;7.57;7.17;;;11.40;99.90;;;;;;4878874;29;20239;-81
2023/11/10 09:29:11;;;;;;;6.83;6.47;;;11.30;99.90;;;;;;4860016;29;20205;-81
2023/11/10 09:31:38;;;;;;;2.27;2.17;;;11.30;99.90;;;;;;4853377;29;20213;-82
2023/11/10 09:34:06;;;;;;;5.77;5.47;;;11.30;99.90;;;;;;4851960;29;20299;-80
2023/11/10 09:36:34;;;;;;;6.13;5.83;;;11.40;99.90;;;;;;4871780;29;20229;-81
2023/11/10 09:39:01;;;;;;;8.70;8.30;;;11.60;99.90;;;;;;4862172;29;20205;-80
2023/11/10 09:41:35;;;;;;;7.97;7.57;;;11.90;99.90;;;;;;4875153;29;20298;-81
2023/11/10 09:44:03;;;;;;;8.30;7.80;;;12.10;99.90;;;;;;4862290;29;20220;-81
2023/11/10 09:46:31;;;;;;;6.83;6.53;;;12.20;99.90;;;;;;4875540;29;20221;-81
2023/11/10 09:48:58;;;;;;;6.43;6.03;;;12.30;99.90;;;;;;4850964;29;20248;-81
2023/11/10 09:51:26;;;;;;;6.13;5.83;;;12.30;99.90;;;;;;4857936;29;20233;-80
2023/11/10 09:53:55;;;;;;;8.17;7.67;;;12.10;99.90;;;;;;4854273;29;20207;-80
2023/11/10 09:56:23;;;;;;;8.40;7.90;;;12.00;99.90;;;;;;4857588;29;20628;-82
2023/11/10 09:58:51;;;;;;;8.10;7.70;;;11.90;99.90;;;;;;4858629;29;20209;-81
2023/11/10 10:01:19;;;;;;;9.00;8.50;;;11.80;99.90;;;;;;4871714;29;20213;-81
2023/11/10 10:03:46;;;;;;;9.63;9.10;;;11.70;99.90;;;;;;4871050;29;20202;-80
2023/11/10 10:06:14;;;;;;;9.67;9.07;;;11.50;99.90;;;;;;4874138;29;20720;-81
2023/11/10 10:08:43;;;;;;;8.90;8.40;;;11.30;99.90;;;;;;4856388;29;20638;-81
2023/11/10 10:11:13;;;;;;;8.70;8.23;;;11.00;99.90;;;;;;4860203;29;20211;-81
2023/11/10 10:13:40;;;;;;;8.63;8.17;;;10.80;99.90;;;;;;4867830;29;20208;-80
2023/11/10 10:16:10;;;;;;;8.90;8.40;;;10.60;99.90;;;;;;4861525;29;20737;-81
2023/11/10 10:18:38;;;;;;;8.50;8.10;;;10.50;99.90;;;;;;4874465;29;20236;-81
2023/11/10 10:21:06;;;;;;;8.80;8.30;;;10.30;99.90;;;;;;4881014;29;20206;-81
2023/11/10 10:23:33;;;;;;;9.10;8.60;;;10.30;99.90;;;;;;4874380;29;20380;-81
2023/11/10 10:26:00;;;;;;;8.50;8.10;;;10.20;99.90;;;;;;4869029;29;20293;-80
2023/11/10 10:28:28;;;;;;;8.70;8.30;;;10.20;99.90;;;;;;4860538;29;20230;-80
2023/11/10 10:30:55;;;;;;;8.60;8.20;;;10.10;99.90;;;;;;4859243;29;20387;-81
2023/11/10 10:33:22;;;;;;;8.97;8.47;;;10.10;99.90;;;;;;4858006;29;20627;-80
2023/11/10 10:35:50;;;;;;;8.70;8.20;;;10.00;99.90;;;;;;4873488;29;20211;-82
2023/11/10 10:38:21;;;;;;;8.57;8.17;;;10.10;99.90;;;;;;4861881;29;20213;-82
2023/11/10 10:40:53;;;;;;;8.90;8.40;;;10.20;99.90;;;;;;4881032;29;20206;-81
2023/11/10 11:04:24;;;;;;;9.23;8.73;;;10.30;99.90;;;;;;4735580;29;20216;-83
2023/11/10 11:33:42;;;;;;;9.47;8.97;;;9.80;99.90;;;;;;4869647;29;20209;-82
2023/11/10 11:55:50;;;;;;;10.17;9.57;;;10.10;99.90;;;;;;4815910;29;20223;-83
2023/11/10 11:58:19;;;;;;;9.70;9.20;;;10.30;99.90;;;;;;4792935;29;20290;-82
2023/11/10 12:00:46;;;;;;;10.27;9.67;;;10.30;99.90;;;;;;4832722;29;20235;-80
2023/11/10 12:03:13;;;;;;;9.50;9.00;;;10.30;99.90;;;;;;4870408;29;20205;-82
2023/11/10 12:05:40;;;;;;;9.30;8.80;;;10.10;99.90;;;;;;4876407;29;20218;-83
2023/11/10 12:08:07;;;;;;;9.10;8.60;;;10.20;99.90;;;;;;4874366;29;20225;-81
2023/11/10 12:10:34;;;;;;;9.63;9.13;;;10.20;99.90;;;;;;4867510;29;20270;-83
2023/11/10 12:13:02;;;;;;;9.20;8.70;;;10.10;99.90;;;;;;4876041;29;20256;-80
2023/11/10 12:15:30;;;;;;;9.73;9.13;;;10.10;99.90;;;;;;4871386;29;20665;-81
2023/11/10 12:17:58;;;;;;;9.57;8.97;;;10.10;99.90;;;;;;4860729;29;20227;-83
2023/11/10 12:20:26;;;;;;;9.23;8.73;;;10.10;99.90;;;;;;4872281;29;20214;-81
2023/11/10 12:22:53;;;;;;;9.47;8.97;;;10.10;99.90;;;;;;4871380;29;20214;-81
2023/11/10 12:25:20;;;;;;;9.20;8.70;;;10.20;99.90;;;;;;4873448;29;20209;-81
2023/11/10 12:27:47;;;;;;;9.23;8.73;;;10.20;99.90;;;;;;4873479;29;20214;-83
2023/11/10 12:30:16;;;;;;;9.30;8.80;;;10.20;99.90;;;;;;4883745;29;20708;-82
2023/11/10 12:32:43;;;;;;;9.00;8.50;;;10.20;99.90;;;;;;4881745;29;20589;-81
2023/11/10 12:35:12;;;;;;;9.50;8.90;;;10.20;99.90;;;;;;4871092;29;20265;-81
2023/11/10 12:37:39;;;;;;;9.40;8.90;;;10.20;99.90;;;;;;4877351;29;20594;-81
2023/11/10 12:40:11;;;;;;;9.30;8.80;;;10.20;99.90;;;;;;4873774;29;20713;-81
2023/11/10 12:42:38;;;;;;;9.40;8.90;;;10.20;99.90;;;;;;4873782;29;20209;-81
2023/11/10 12:45:08;;;;;;;9.27;8.77;;;10.10;99.90;;;;;;4858896;29;20278;-81
2023/11/10 12:47:38;;;;;;;9.43;8.93;;;10.10;99.90;;;;;;4875288;29;20654;-81
2023/11/10 12:50:10;;;;;;;9.43;8.93;;;10.10;99.90;;;;;;4890275;29;20242;-78
2023/11/10 12:52:38;;;;;;;9.40;8.80;;;10.10;99.90;;;;;;4872196;29;20681;-78
2023/11/10 12:55:07;;;;;;;9.50;9.00;;;10.10;99.90;;;;;;4878018;29;20296;-79
2023/11/10 12:57:35;;;;;;;9.87;9.27;;;10.10;99.90;;;;;;4878581;29;20229;-80
2023/11/10 13:00:11;;;;;;;9.43;8.90;;;10.20;99.90;;;;;;4877515;29;20206;-79
2023/11/10 13:02:40;;;;;;;9.27;8.77;;;10.20;99.90;;;;;;4866853;29;20208;-79
2023/11/10 13:05:08;;;;;;;9.30;8.70;;;10.20;99.90;;;;;;4875482;29;20651;-79
2023/11/10 13:07:35;;;;;;;9.00;8.50;;;10.20;99.90;;;;;;4877932;29;20240;-79
2023/11/10 13:10:06;;;;;;;9.20;8.70;;;10.20;99.90;;;;;;4875699;29;20225;-79
2023/11/10 13:12:33;;;;;;;8.87;8.37;;;10.10;99.90;;;;;;4879023;29;20294;-78
2023/11/10 13:15:00;;;;;;;9.00;8.40;;;10.20;99.90;;;;;;4894676;29;20210;-77
2023/11/10 13:17:27;;;;;;;9.23;8.63;;;10.20;99.90;;;;;;4874357;29;20237;-79
2023/11/10 13:19:55;;;;;;;9.37;8.77;;;10.10;99.90;;;;;;4876670;29;20201;-79
2023/11/10 13:22:22;;;;;;;9.20;8.60;;;10.20;99.90;;;;;;4865381;29;20627;-80
2023/11/10 13:24:50;;;;;;;9.07;8.57;;;10.20;99.90;;;;;;4874087;29;20204;-80
2023/11/10 13:27:18;;;;;;;8.90;8.40;;;10.20;99.90;;;;;;4867322;29;20260;-80
2023/11/10 13:29:45;;;;;;;9.13;8.63;;;10.20;99.90;;;;;;4860581;29;20229;-81
2023/11/10 13:32:14;;;;;;;9.30;8.70;;;10.10;99.90;;;;;;4858067;29;20213;-77
2023/11/10 13:34:41;;;;;;;8.77;8.27;;;10.10;99.90;;;;;;4866138;29;20194;-79
2023/11/10 13:37:11;;;;;;;9.50;8.90;;;10.10;99.90;;;;;;4870598;29;20225;-81
2023/11/10 13:39:39;;;;;;;9.93;9.13;;;10.10;99.90;;;;;;4868894;29;20205;-84
2023/11/10 13:42:07;;;;;;;9.30;8.80;;;10.10;99.90;;;;;;4876866;29;20297;-84
2023/11/10 13:44:34;;;;;;;9.37;8.83;;;10.00;99.90;;;;;;4873611;29;20206;-81
2023/11/10 13:47:03;;;;;;;9.70;9.10;;;10.00;99.90;;;;;;4874358;29;20221;-80
2023/11/10 13:49:30;;;;;;;9.33;8.80;;;10.00;99.90;;;;;;4871923;29;20202;-79
2023/11/10 13:51:56;;;;;;;9.20;8.60;;;10.00;99.90;;;;;;4875984;29;20273;-78
2023/11/10 13:54:27;;;;;;;9.30;8.70;;;10.10;99.90;;;;;;4875379;29;20301;-80
2023/11/10 13:56:55;;;;;;;8.80;8.30;;;10.00;99.90;;;;;;4876442;29;20241;-80
2023/11/10 13:59:22;;;;;;;9.20;8.70;;;10.10;99.90;;;;;;4892867;29;20212;-80
2023/11/10 14:01:49;;;;;;;9.10;8.50;;;10.10;99.90;;;;;;4876898;29;20293;-78
2023/11/10 14:04:16;;;;;;;9.10;8.60;;;10.00;99.90;;;;;;4846551;29;20214;-79